Detall de PIREP

Printer-friendly versionPDF version

[2013/11/30 08:11:00]
Flight IATA:CT3238
Pilot Number:012
Company ICAO:CAT
Aircraft Type:F70/A
PAX:26
Aircraft Registration:PFJ
Departing Airport: LEPA
Destination Airport: EVRA
Alternate Airport:EYSA
Online: VATSIM
Route:MEROS/M075F320 UN853 LUMAS UM985 TAGIP UT876 OGEPI UM726 KOGOL/M075F330 UN871 DOKEL UP733 TOMTI P733 KMI M994 GOMED R801 RUSNE L738 ASKOR
Flight Level:F330
No Slew and time accel
No pause
Crash detect
Detect pilot in Cockpit between each 30 and 45 minutes
08:11 Zero fuel Weight: 60795 Lbs, Fuel Weight: 21962 Lbs
08:11 VATSIM:LEPA 300730Z 00000KT 9999 FEW030 03/03 Q1019 NOSIG
08:11 VATSIM:EVRA 300720Z 00000KT 9000 SCT036 M05/M05 Q1010 R18/090070 NOSIG
08:11 VOICE CATALONIAN
08:14 Parking Brakes off
08:20 Take-off
08:20 Take off Weight: 82336 Lbs
08:20 Wind: 000º @ 000 Knots Heading: 238º
08:20 POS N39º 33´ 16´´ E002º 43´ 36´´
08:20 Gear Up: 148 Knots
08:20 Flaps:2 at 148 Knots
08:21 Flaps:1 at 170 Knots
08:22 Flaps:0 at 183 Knots
08:35 Wind:343º@038 Knots Heading: 031º Ground Speed: 278 Knots Altitude 32066 ft
08:50 Wind:355º@050 Knots Heading: 024º Ground Speed: 395 Knots Altitude 32066 ft
09:05 Wind:325º@037 Knots Heading: 034º Ground Speed: 420 Knots Altitude 31909 ft
09:20 Wind:301º@035 Knots Heading: 050º Ground Speed: 445 Knots Altitude 31899 ft
09:35 Wind:276º@035 Knots Heading: 025º Ground Speed: 437 Knots Altitude 32050 ft
09:50 Wind:260º@038 Knots Heading: 024º Ground Speed: 455 Knots Altitude 32070 ft
10:05 Wind:272º@023 Knots Heading: 033º Ground Speed: 450 Knots Altitude 32132 ft
10:08 TOC
10:08 Fuel Weight: 12558 Lb
10:20 Wind:285º@030 Knots Heading: 022º Ground Speed: 438 Knots Altitude 33074 ft
10:35 Wind:290º@026 Knots Heading: 038º Ground Speed: 442 Knots Altitude 33054 ft
10:50 Wind:000º@031 Knots Heading: 031º Ground Speed: 406 Knots Altitude 32949 ft
11:05 Wind:001º@029 Knots Heading: 032º Ground Speed: 405 Knots Altitude 32900 ft
11:20 Wind:339º@012 Knots Heading: 053º Ground Speed: 426 Knots Altitude 32903 ft
11:30 TOD
11:30 Fuel Weight: 6527 Lb
11:35 Wind:337º@015 Knots Heading: 030º Ground Speed: 378 Knots Altitude 24130 ft
11:49 Flaps:1 at 201 Knots
11:50 Wind:192º@004 Knots Heading: 157º Ground Speed: 181 Knots Altitude 2496 ft
11:50 Flaps:2 at 178 Knots
11:50 Gear Down: 146 Knots
11:50 Flaps:3 at 146 Knots
11:51 Flaps:4 at 142 Knots
11:54 TouchDown:Rate -216 ft/min Speed: 108 Knots
11:55 VATSIM:EVRA 301120Z 20004KT CAVOK 01/M01 Q1010 R18/090070 NOSIG
11:55 Land
11:55 Wind:193º@004 Knots
11:55 Heading: 183º
11:55 Flight Duration: 03:35
11:55 Landing Weight: 66344 Lbs
11:55 POS N56º 55´ 24´´ E023º 58´ 15´´
11:58 Parking brakes on
11:58 Block to Block Duration: 03:44
11:58 Final Fuel: 5434 Lbls
11:58 Spent Fuel: 16527 Lbls
11:58 Flight Length: 1434 NM
11:58 TOD Land Length: 110 NM

Exportar CSV

Powered by Drupal - Modified by Danger4k